< < Back
Terminal Aerodrome Forecast


Current Version              Previous Versions:   1  2  3  4  5  6  7  8  9  

Terminal Aerodrome Forecast

725
FTUS42 KCAE 081911 AAA
TAFCAE
TAF AMD
KCAE 081911Z 0819/0918 24013G23KT P6SM SCT050 BKN100
      TEMPO 0819/0822 6SM -SHRA BKN050
     FM090000 27010G17KT P6SM SCT100
     FM091500 27015G25KT P6SM BKN100=



Latest METAR

217
SAUS80 KWBC 090100 CCA
MTRCAE
METAR KCAE 090056Z 00000KT 10SM CLR 07/02 A2970 RMK AO2 SLP059
T00670017


USA.gov is the U.S. government's official web portal to all federal, state and local government web resources and services.